This is the latest recevied weather packets stored in our database for station/object NL3D. If no packets are shown the sender has not sent any weather packets the latest 10 day(s).
| Time | Temp. | Humidity | Pressure | Rain* | Wind** | Luminosity | Snow |
|---|---|---|---|---|---|---|---|
| 1777494350 | 8.33° C | 47% | 1018.4 hPa | 0 mm | - | 217 W/m² | - |
| 1777494047 | 8.33° C | 45% | 1018.7 hPa | 0 mm | - | 198 W/m² | - |
| 1777493745 | 9.44° C | 43% | 1018.8 hPa | 0 mm | - | 205 W/m² | - |
| 1777493443 | 10.56° C | 40% | 1018.6 hPa | 0 mm | - | 574 W/m² | - |
| 1777493138 | 10.56° C | 37% | 1018.7 hPa | 0 mm | - | 770 W/m² | - |
| 1777492835 | 10° C | 37% | 1018.5 hPa | 0 mm | - | 718 W/m² | - |
| 1777492532 | 10° C | 37% | 1018.3 hPa | 0 mm | - | 695 W/m² | - |
| 1777492227 | 10° C | 40% | 1018.6 hPa | 0 mm | - | 656 W/m² | - |
| 1777491925 | 10° C | 38% | 1018.8 hPa | 0 mm | - | 632 W/m² | - |
| 1777491621 | 9.44° C | 41% | 1018.7 hPa | 0 mm | - | 663 W/m² | - |
| 1777491319 | 9.44° C | 41% | 1018.7 hPa | 0 mm | - | 606 W/m² | - |
| 1777491016 | 9.44° C | 43% | 1018.7 hPa | 0 mm | - | 594 W/m² | - |
| 1777490711 | 8.89° C | 43% | 1018.9 hPa | 0 mm | - | 582 W/m² | - |
| 1777490409 | 8.33° C | 47% | 1018.7 hPa | 0 mm | - | 560 W/m² | - |
| 1777490105 | 7.78° C | 50% | 1019.1 hPa | 0 mm | - | 572 W/m² | - |
| 1777489802 | 7.78° C | 48% | 1019 hPa | 0 mm | - | 154 W/m² | - |
| 1777489499 | 7.78° C | 51% | 1018.9 hPa | 0 mm | - | 432 W/m² | - |
| 1777489196 | 7.78° C | 51% | 1018.9 hPa | 0 mm | - | 473 W/m² | - |
| 1777488893 | 7.78° C | 50% | 1019.2 hPa | 0 mm | - | 233 W/m² | - |
| 1777488590 | 7.78° C | 51% | 1019.1 hPa | 0 mm | - | 246 W/m² | - |
| 1777488288 | 7.78° C | 51% | 1019 hPa | 0 mm | - | 255 W/m² | - |
| 1777487986 | 7.78° C | 50% | 1019.2 hPa | 0 mm | - | 209 W/m² | - |
| 1777487683 | 7.78° C | 47% | 1019.2 hPa | 0 mm | - | 180 W/m² | - |
| 1777487380 | 7.78° C | 44% | 1019.1 hPa | 0 mm | - | 238 W/m² | - |
| 1777487078 | 8.33° C | 42% | 1019.2 hPa | 0 mm | - | 194 W/m² | - |
* Rain latest hour (hover to see other rain measurements)
** Current wind speed in m/s (hover to see current wind gust speed)